Time;durP1;ratioP1;P1;durP2;ratioP2;P2;SDS_P1;SDS_P2;PMS_P1;PMS_P2;Temp;Humidity;BMP_temperature;BMP_pressure;BME280_temperature;BME280_humidity;BME280_pressure;Samples;Min_cycle;Max_cycle;Signal;HPM_P1;HPM_P2
2023/07/07 00:00:26;;;;;;;20.90;19.60;;;;;;;;;;5095163;28;20481;-81
2023/07/07 00:02:53;;;;;;;19.77;18.77;;;;;;;;;;5095652;28;20535;-82
2023/07/07 00:05:20;;;;;;;19.60;18.60;;;;;;;;;;5095172;28;21024;-82
2023/07/07 00:07:49;;;;;;;20.17;19.17;;;;;;;;;;5094243;28;20450;-82
2023/07/07 00:10:16;;;;;;;20.20;19.10;;;;;;;;;;5095448;28;20476;-82
2023/07/07 00:12:43;;;;;;;19.80;18.80;;;;;;;;;;5095300;28;20455;-82
2023/07/07 00:15:10;;;;;;;20.37;19.27;;;;;;;;;;5095382;28;20422;-81
2023/07/07 00:17:41;;;;;;;20.23;19.13;;;;;;;;;;5094256;28;20993;-82
2023/07/07 00:20:10;;;;;;;20.03;18.80;;;;;;;;;;5094333;28;20814;-83
2023/07/07 00:22:37;;;;;;;20.33;19.23;;;;;;;;;;5095158;28;20533;-81
2023/07/07 00:25:06;;;;;;;20.33;18.87;;;;;;;;;;5094936;28;21052;-81
2023/07/07 00:27:33;;;;;;;20.20;19.00;;;;;;;;;;5094551;28;20459;-80
2023/07/07 00:30:02;;;;;;;19.87;18.77;;;;;;;;;;5104768;28;20464;-81
2023/07/07 00:32:31;;;;;;;20.00;18.80;;;;;;;;;;5110613;28;20447;-80
2023/07/07 00:34:58;;;;;;;20.40;19.30;;;;;;;;;;5110542;28;20428;-82
2023/07/07 00:37:25;;;;;;;19.53;18.53;;;;;;;;;;5095875;28;20505;-82
2023/07/07 00:39:52;;;;;;;20.17;19.07;;;;;;;;;;5095698;28;20482;-83
2023/07/07 00:42:20;;;;;;;20.90;19.70;;;;;;;;;;5095557;28;20468;-82
2023/07/07 00:45:06;;;;;;;19.77;18.77;;;;;;;;;;5095659;28;20463;-81
2023/07/07 00:47:33;;;;;;;20.57;19.47;;;;;;;;;;5094769;28;20964;-82
2023/07/07 00:50:00;;;;;;;21.13;19.93;;;;;;;;;;5095202;28;20449;-81
2023/07/07 00:52:28;;;;;;;21.10;19.90;;;;;;;;;;5095565;28;20469;-81
2023/07/07 00:54:55;;;;;;;20.80;19.70;;;;;;;;;;5096117;28;20469;-82
2023/07/07 00:57:23;;;;;;;20.93;19.73;;;;;;;;;;5094451;28;20417;-82
2023/07/07 00:59:50;;;;;;;20.57;19.50;;;;;;;;;;5094892;28;20975;-81
2023/07/07 01:02:24;;;;;;;20.23;19.13;;;;;;;;;;5095059;28;20854;-83
2023/07/07 01:04:52;;;;;;;20.80;19.60;;;;;;;;;;5094908;28;20524;-82
2023/07/07 01:07:22;;;;;;;20.73;19.23;;;;;;;;;;5095010;28;20423;-81
2023/07/07 01:09:49;;;;;;;20.97;19.70;;;;;;;;;;5095064;28;20466;-81
2023/07/07 01:12:16;;;;;;;21.27;19.70;;;;;;;;;;5094171;28;20445;-82
2023/07/07 01:14:46;;;;;;;20.57;19.43;;;;;;;;;;5094718;28;20496;-81
2023/07/07 01:17:17;;;;;;;21.10;19.70;;;;;;;;;;5094562;28;20471;-81
2023/07/07 01:19:57;;;;;;;19.87;18.77;;;;;;;;;;5094887;28;20490;-81
2023/07/07 01:22:34;;;;;;;20.03;18.93;;;;;;;;;;5094549;28;20436;-81
2023/07/07 01:25:06;;;;;;;20.53;19.43;;;;;;;;;;5094371;28;21023;-82
2023/07/07 01:27:42;;;;;;;20.00;19.00;;;;;;;;;;5093786;28;20465;-82
2023/07/07 01:30:29;;;;;;;20.17;18.87;;;;;;;;;;5094201;28;20472;-82
2023/07/07 01:32:56;;;;;;;20.90;19.30;;;;;;;;;;5094480;28;20427;-81
2023/07/07 01:35:24;;;;;;;20.07;19.07;;;;;;;;;;5094407;28;20444;-81
2023/07/07 01:37:52;;;;;;;21.00;19.90;;;;;;;;;;5093847;28;20421;-81
2023/07/07 01:40:40;;;;;;;21.40;20.30;;;;;;;;;;5093727;28;20499;-81
2023/07/07 01:43:09;;;;;;;20.23;19.13;;;;;;;;;;5094193;28;20417;-81
2023/07/07 01:45:40;;;;;;;20.00;19.00;;;;;;;;;;5093188;28;21054;-81
2023/07/07 01:48:13;;;;;;;20.43;19.30;;;;;;;;;;5094510;28;20461;-81
2023/07/07 01:50:41;;;;;;;19.57;18.57;;;;;;;;;;5094023;28;20483;-81
2023/07/07 01:53:11;;;;;;;20.13;18.83;;;;;;;;;;5093980;28;20471;-82
2023/07/07 01:55:39;;;;;;;21.33;19.87;;;;;;;;;;5093076;28;20425;-79
2023/07/07 01:58:09;;;;;;;20.13;19.03;;;;;;;;;;5093811;28;20483;-81
2023/07/07 02:00:36;;;;;;;20.20;19.20;;;;;;;;;;5093610;28;20430;-81
2023/07/07 02:03:08;;;;;;;20.83;19.60;;;;;;;;;;5092810;28;20449;-81
2023/07/07 02:05:35;;;;;;;20.93;19.80;;;;;;;;;;5092905;28;20466;-80
2023/07/07 02:08:03;;;;;;;20.93;19.80;;;;;;;;;;5093829;28;20430;-81
2023/07/07 02:10:30;;;;;;;20.00;18.90;;;;;;;;;;5093508;28;20470;-80
2023/07/07 02:12:57;;;;;;;21.17;20.07;;;;;;;;;;5093297;28;20450;-80
2023/07/07 02:15:24;;;;;;;21.03;19.73;;;;;;;;;;5093373;28;20910;-81
2023/07/07 02:17:52;;;;;;;21.40;20.20;;;;;;;;;;5092593;28;20914;-81
2023/07/07 02:20:20;;;;;;;20.17;19.20;;;;;;;;;;5093287;28;20492;-81
2023/07/07 02:22:47;;;;;;;20.07;18.93;;;;;;;;;;5093365;28;20819;-80
2023/07/07 02:25:14;;;;;;;21.70;20.20;;;;;;;;;;5093214;28;20460;-81
2023/07/07 02:27:41;;;;;;;20.87;19.63;;;;;;;;;;5093119;28;20467;-81
2023/07/07 02:30:09;;;;;;;20.70;19.50;;;;;;;;;;5093191;28;20450;-81
2023/07/07 02:32:36;;;;;;;20.43;19.37;;;;;;;;;;5092662;28;20445;-81
2023/07/07 02:35:06;;;;;;;20.27;19.23;;;;;;;;;;5093402;28;20854;-81
2023/07/07 02:37:34;;;;;;;20.33;19.00;;;;;;;;;;5092328;28;20921;-83
2023/07/07 02:40:01;;;;;;;20.07;19.07;;;;;;;;;;5092751;28;20421;-83
2023/07/07 02:42:28;;;;;;;20.20;19.10;;;;;;;;;;5092836;28;20513;-81
2023/07/07 02:44:55;;;;;;;20.77;19.67;;;;;;;;;;5092908;28;20440;-81
2023/07/07 02:47:22;;;;;;;20.13;19.00;;;;;;;;;;5092517;28;20463;-80
2023/07/07 02:49:49;;;;;;;20.73;19.63;;;;;;;;;;5093135;28;20418;-81
2023/07/07 02:52:16;;;;;;;21.00;19.90;;;;;;;;;;5094191;28;20939;-83
2023/07/07 02:54:44;;;;;;;21.30;20.00;;;;;;;;;;5095839;28;20499;-82
2023/07/07 02:57:12;;;;;;;21.87;20.37;;;;;;;;;;5095239;28;20417;-82
2023/07/07 02:59:39;;;;;;;20.80;19.70;;;;;;;;;;5096298;28;20421;-82
2023/07/07 03:02:06;;;;;;;20.17;19.07;;;;;;;;;;5095893;28;20978;-82
2023/07/07 03:04:33;;;;;;;20.00;18.90;;;;;;;;;;5096182;28;20952;-82
2023/07/07 03:07:00;;;;;;;19.50;18.57;;;;;;;;;;5095039;28;20509;-82
2023/07/07 03:09:27;;;;;;;20.60;19.23;;;;;;;;;;5096263;28;20505;-82
2023/07/07 03:11:56;;;;;;;20.13;19.03;;;;;;;;;;5097528;28;20445;-83
2023/07/07 03:14:23;;;;;;;19.87;18.70;;;;;;;;;;5095883;28;20474;-82
2023/07/07 03:16:51;;;;;;;19.40;18.40;;;;;;;;;;5094795;28;20544;-82
2023/07/07 03:19:18;;;;;;;20.33;19.23;;;;;;;;;;5095967;28;20429;-83
2023/07/07 03:21:45;;;;;;;20.30;18.90;;;;;;;;;;5095146;28;20471;-83
2023/07/07 03:24:12;;;;;;;20.43;19.10;;;;;;;;;;5095558;28;20478;-83
2023/07/07 03:26:39;;;;;;;20.03;18.93;;;;;;;;;;5094948;28;20521;-83
2023/07/07 03:29:08;;;;;;;20.40;19.20;;;;;;;;;;5095537;28;20849;-83
2023/07/07 03:31:35;;;;;;;19.87;18.87;;;;;;;;;;5095609;28;20441;-81
2023/07/07 03:34:03;;;;;;;20.10;19.00;;;;;;;;;;5095749;28;20432;-83
2023/07/07 03:36:31;;;;;;;20.13;18.93;;;;;;;;;;5095459;28;20449;-83
2023/07/07 03:38:59;;;;;;;20.13;19.00;;;;;;;;;;5095562;28;20452;-79
2023/07/07 03:41:27;;;;;;;19.53;18.40;;;;;;;;;;5094419;28;20511;-79
2023/07/07 03:43:55;;;;;;;20.50;19.50;;;;;;;;;;5093951;28;20805;-80
2023/07/07 03:46:25;;;;;;;20.20;19.20;;;;;;;;;;5093943;28;21003;-80
2023/07/07 03:48:53;;;;;;;20.20;19.10;;;;;;;;;;5094890;28;20541;-78
2023/07/07 03:51:20;;;;;;;20.67;19.57;;;;;;;;;;5093902;28;20491;-80
2023/07/07 03:53:47;;;;;;;20.57;19.27;;;;;;;;;;5094875;28;20421;-79
2023/07/07 03:56:14;;;;;;;20.90;19.60;;;;;;;;;;5094384;28;20512;-80
2023/07/07 03:58:41;;;;;;;20.63;19.53;;;;;;;;;;5094779;28;20430;-80
2023/07/07 04:01:10;;;;;;;20.47;19.40;;;;;;;;;;5094414;28;20859;-80
2023/07/07 04:03:39;;;;;;;19.50;18.40;;;;;;;;;;5093716;28;20478;-79
2023/07/07 04:06:06;;;;;;;20.83;19.73;;;;;;;;;;5093628;28;20452;-80
2023/07/07 04:08:33;;;;;;;21.00;19.50;;;;;;;;;;5094477;28;20511;-79
2023/07/07 04:11:00;;;;;;;20.20;19.10;;;;;;;;;;5093797;28;20459;-79
2023/07/07 04:13:28;;;;;;;21.33;20.07;;;;;;;;;;5094539;28;20422;-79
2023/07/07 04:15:59;;;;;;;20.53;19.43;;;;;;;;;;5093297;28;20459;-80
2023/07/07 04:18:26;;;;;;;21.07;19.77;;;;;;;;;;5094252;28;20796;-79
2023/07/07 04:20:54;;;;;;;20.67;19.40;;;;;;;;;;5093438;28;20434;-80
2023/07/07 04:23:22;;;;;;;21.30;20.00;;;;;;;;;;5094520;28;20489;-80
2023/07/07 04:25:49;;;;;;;20.33;19.10;;;;;;;;;;5093208;28;21192;-80
2023/07/07 04:28:16;;;;;;;20.40;19.20;;;;;;;;;;5094282;28;20845;-80
2023/07/07 04:30:44;;;;;;;20.53;19.30;;;;;;;;;;5093947;28;20478;-79
2023/07/07 04:33:11;;;;;;;19.67;18.67;;;;;;;;;;5093805;28;20459;-80
2023/07/07 04:35:38;;;;;;;21.00;19.70;;;;;;;;;;5093464;28;20455;-80
2023/07/07 04:38:06;;;;;;;20.07;18.87;;;;;;;;;;5094390;28;20443;-79
2023/07/07 04:40:33;;;;;;;21.30;19.80;;;;;;;;;;5093140;28;20495;-80
2023/07/07 04:43:00;;;;;;;21.13;19.83;;;;;;;;;;5093735;28;20475;-80
2023/07/07 04:45:27;;;;;;;20.93;19.73;;;;;;;;;;5093556;28;20422;-79
2023/07/07 04:47:54;;;;;;;20.13;18.93;;;;;;;;;;5092897;28;20986;-79
2023/07/07 04:50:22;;;;;;;19.90;18.80;;;;;;;;;;5093596;28;20428;-80
2023/07/07 04:52:49;;;;;;;19.70;18.70;;;;;;;;;;5092699;28;20453;-80
2023/07/07 04:55:17;;;;;;;20.57;19.20;;;;;;;;;;5093505;28;20428;-79
2023/07/07 04:57:44;;;;;;;20.50;19.40;;;;;;;;;;5092671;28;20494;-79
2023/07/07 05:00:13;;;;;;;20.80;19.70;;;;;;;;;;5099845;28;20430;-81
2023/07/07 05:02:40;;;;;;;20.80;19.50;;;;;;;;;;5109825;28;20531;-82
2023/07/07 05:05:07;;;;;;;20.77;19.60;;;;;;;;;;5093789;28;20506;-82
2023/07/07 05:07:34;;;;;;;20.23;19.13;;;;;;;;;;5100945;28;20814;-80
2023/07/07 05:10:01;;;;;;;20.23;19.13;;;;;;;;;;5094318;28;20431;-81
2023/07/07 05:12:30;;;;;;;21.63;20.37;;;;;;;;;;5094158;28;20475;-80
2023/07/07 05:14:57;;;;;;;20.90;19.43;;;;;;;;;;5093694;28;20790;-81
2023/07/07 05:17:24;;;;;;;20.50;19.30;;;;;;;;;;5092586;28;20537;-79
2023/07/07 05:19:51;;;;;;;20.83;19.40;;;;;;;;;;5094110;28;20415;-81
2023/07/07 05:22:19;;;;;;;21.33;20.13;;;;;;;;;;5093812;28;20470;-81
2023/07/07 05:24:46;;;;;;;22.70;21.30;;;;;;;;;;5093459;28;20467;-81
2023/07/07 05:27:13;;;;;;;22.30;21.00;;;;;;;;;;5092194;28;20538;-81
2023/07/07 05:29:42;;;;;;;20.63;19.30;;;;;;;;;;5093838;28;20447;-80
2023/07/07 05:32:09;;;;;;;21.13;19.37;;;;;;;;;;5092772;28;20470;-81
2023/07/07 05:34:36;;;;;;;20.17;19.07;;;;;;;;;;5093480;28;20796;-81
2023/07/07 05:37:04;;;;;;;20.40;19.23;;;;;;;;;;5091466;28;20426;-80
2023/07/07 05:39:31;;;;;;;20.40;19.30;;;;;;;;;;5093318;28;20427;-80
2023/07/07 05:41:58;;;;;;;20.17;18.53;;;;;;;;;;5092895;28;20459;-79
2023/07/07 05:44:25;;;;;;;20.30;19.20;;;;;;;;;;5093692;28;20418;-80
2023/07/07 05:46:53;;;;;;;19.73;18.63;;;;;;;;;;5092599;28;20527;-80
2023/07/07 05:49:20;;;;;;;19.73;18.67;;;;;;;;;;5093633;28;20783;-80
2023/07/07 05:51:48;;;;;;;19.30;18.10;;;;;;;;;;5092778;28;20520;-80
2023/07/07 05:54:15;;;;;;;18.93;18.00;;;;;;;;;;5093318;28;20893;-80
2023/07/07 05:56:42;;;;;;;18.57;17.57;;;;;;;;;;5092556;28;20402;-80
2023/07/07 05:59:09;;;;;;;18.87;17.87;;;;;;;;;;5093010;28;20841;-79
2023/07/07 06:01:38;;;;;;;19.00;17.80;;;;;;;;;;5092782;28;20454;-80
2023/07/07 06:04:06;;;;;;;18.90;17.90;;;;;;;;;;5092751;28;20947;-79
2023/07/07 06:06:33;;;;;;;20.03;19.03;;;;;;;;;;5092986;28;20907;-80
2023/07/07 06:09:00;;;;;;;19.67;18.57;;;;;;;;;;5093753;28;20449;-79
2023/07/07 06:11:27;;;;;;;19.80;18.70;;;;;;;;;;5093263;28;21250;-80
2023/07/07 06:13:54;;;;;;;19.97;18.93;;;;;;;;;;5092690;28;20843;-80
2023/07/07 06:16:21;;;;;;;21.10;19.80;;;;;;;;;;5092064;28;20448;-80
2023/07/07 06:18:48;;;;;;;20.37;19.00;;;;;;;;;;5092934;28;20447;-80
2023/07/07 06:21:17;;;;;;;20.70;19.40;;;;;;;;;;5093091;28;20443;-80
2023/07/07 06:23:44;;;;;;;20.33;18.77;;;;;;;;;;5091910;28;20952;-81
2023/07/07 06:26:11;;;;;;;21.57;20.37;;;;;;;;;;5091369;28;20461;-78
2023/07/07 06:28:38;;;;;;;20.83;19.43;;;;;;;;;;5095754;28;20476;-78
2023/07/07 06:31:05;;;;;;;19.87;18.77;;;;;;;;;;5095010;28;20461;-78
2023/07/07 06:33:32;;;;;;;21.63;20.43;;;;;;;;;;5095800;28;20403;-78
2023/07/07 06:35:59;;;;;;;21.23;20.03;;;;;;;;;;5095936;28;20481;-78
2023/07/07 06:38:28;;;;;;;21.07;19.87;;;;;;;;;;5095447;28;20498;-78
2023/07/07 06:40:55;;;;;;;20.20;19.10;;;;;;;;;;5095742;28;20439;-78
2023/07/07 06:43:22;;;;;;;21.97;20.47;;;;;;;;;;5095440;28;20416;-79
2023/07/07 06:45:49;;;;;;;22.33;20.77;;;;;;;;;;5095383;28;20496;-77
2023/07/07 06:48:16;;;;;;;21.30;19.70;;;;;;;;;;5097105;28;20455;-79
2023/07/07 06:50:44;;;;;;;20.97;19.77;;;;;;;;;;5095584;28;20995;-81
2023/07/07 06:53:11;;;;;;;20.90;19.60;;;;;;;;;;5096864;28;20831;-81
2023/07/07 06:55:40;;;;;;;20.80;19.40;;;;;;;;;;5096744;28;20434;-82
2023/07/07 06:58:07;;;;;;;20.80;19.60;;;;;;;;;;5097529;28;20412;-81
2023/07/07 07:00:34;;;;;;;21.10;19.80;;;;;;;;;;5096630;28;20462;-81
2023/07/07 07:03:01;;;;;;;20.03;18.93;;;;;;;;;;5096453;28;20427;-81
2023/07/07 07:05:28;;;;;;;21.20;20.00;;;;;;;;;;5096485;28;20415;-81
2023/07/07 07:07:55;;;;;;;21.30;20.10;;;;;;;;;;5098984;28;20451;-81
2023/07/07 07:10:22;;;;;;;21.47;20.07;;;;;;;;;;5095880;28;21159;-82
2023/07/07 07:12:50;;;;;;;20.80;19.50;;;;;;;;;;5096431;28;20412;-81
2023/07/07 07:15:17;;;;;;;21.10;19.90;;;;;;;;;;5096256;28;20790;-81
2023/07/07 07:17:44;;;;;;;21.83;20.53;;;;;;;;;;5095980;28;20464;-81
2023/07/07 07:20:12;;;;;;;21.40;20.10;;;;;;;;;;5096315;28;20460;-82
2023/07/07 07:22:39;;;;;;;21.93;20.53;;;;;;;;;;5097089;28;20453;-81
2023/07/07 07:25:07;;;;;;;22.60;21.10;;;;;;;;;;5096931;28;20950;-82
2023/07/07 07:27:34;;;;;;;21.00;19.80;;;;;;;;;;5095671;28;20459;-80
2023/07/07 07:30:03;;;;;;;21.63;20.33;;;;;;;;;;5093856;28;20428;-77
2023/07/07 07:32:30;;;;;;;20.33;19.13;;;;;;;;;;5093893;28;20419;-76
2023/07/07 07:34:57;;;;;;;21.63;20.37;;;;;;;;;;5095975;28;20449;-83
2023/07/07 07:37:24;;;;;;;21.33;19.97;;;;;;;;;;5095865;28;20498;-82
2023/07/07 07:39:51;;;;;;;21.90;20.63;;;;;;;;;;5094891;28;20437;-84
2023/07/07 07:42:18;;;;;;;21.90;20.60;;;;;;;;;;5095522;28;20464;-83
2023/07/07 07:44:45;;;;;;;21.27;20.07;;;;;;;;;;5094936;28;20437;-81
2023/07/07 07:47:14;;;;;;;21.30;19.90;;;;;;;;;;5094852;28;20463;-82
2023/07/07 07:49:42;;;;;;;21.97;20.67;;;;;;;;;;5095568;28;20487;-81
2023/07/07 07:52:09;;;;;;;22.10;20.80;;;;;;;;;;5095244;28;20459;-81
2023/07/07 07:54:36;;;;;;;21.77;20.57;;;;;;;;;;5094102;28;20429;-77
2023/07/07 07:57:03;;;;;;;22.20;20.80;;;;;;;;;;5092764;28;20937;-76
2023/07/07 07:59:30;;;;;;;21.50;20.30;;;;;;;;;;5093543;28;20428;-75
2023/07/07 08:01:57;;;;;;;21.63;20.43;;;;;;;;;;5092333;28;20439;-76
2023/07/07 08:04:25;;;;;;;22.00;20.70;;;;;;;;;;5094953;28;20936;-82
2023/07/07 08:06:53;;;;;;;22.80;21.40;;;;;;;;;;5095319;28;20482;-83
2023/07/07 08:09:20;;;;;;;22.20;20.80;;;;;;;;;;5092946;28;20445;-74
2023/07/07 08:11:53;;;;;;;22.00;20.70;;;;;;;;;;5094055;28;20476;-76
2023/07/07 08:14:22;;;;;;;22.87;21.07;;;;;;;;;;5092264;28;20502;-77
2023/07/07 08:16:51;;;;;;;22.80;21.50;;;;;;;;;;5092169;28;20815;-76
2023/07/07 08:19:18;;;;;;;22.80;21.37;;;;;;;;;;5092921;28;20423;-77
2023/07/07 08:21:46;;;;;;;21.50;20.20;;;;;;;;;;5092112;28;20452;-77
2023/07/07 08:24:13;;;;;;;21.90;20.60;;;;;;;;;;5091438;28;20928;-77
2023/07/07 08:26:40;;;;;;;22.27;20.90;;;;;;;;;;5090558;28;20427;-76
2023/07/07 08:29:09;;;;;;;21.43;20.23;;;;;;;;;;5091884;28;20423;-76
2023/07/07 08:31:36;;;;;;;22.20;20.87;;;;;;;;;;5091642;28;20500;-77
2023/07/07 08:34:03;;;;;;;21.53;20.20;;;;;;;;;;5091737;28;20465;-77
2023/07/07 08:36:30;;;;;;;22.40;21.10;;;;;;;;;;5091929;28;20428;-76
2023/07/07 08:39:01;;;;;;;22.20;20.90;;;;;;;;;;5092244;28;20851;-76
2023/07/07 08:41:28;;;;;;;22.50;21.10;;;;;;;;;;5091684;28;20436;-76
2023/07/07 08:43:55;;;;;;;23.20;21.80;;;;;;;;;;5091918;28;20432;-76
2023/07/07 08:46:24;;;;;;;22.13;20.80;;;;;;;;;;5090963;28;20468;-76
2023/07/07 08:48:55;;;;;;;22.50;21.10;;;;;;;;;;5091502;28;20888;-77
2023/07/07 08:51:25;;;;;;;22.93;21.20;;;;;;;;;;5091585;28;20435;-76
2023/07/07 08:53:55;;;;;;;22.80;21.50;;;;;;;;;;5092358;28;20420;-76
2023/07/07 08:56:25;;;;;;;22.10;20.80;;;;;;;;;;5091393;28;20415;-76
2023/07/07 08:59:01;;;;;;;23.00;21.50;;;;;;;;;;5091058;28;20494;-81
2023/07/07 09:01:33;;;;;;;22.50;21.10;;;;;;;;;;5092503;28;20446;-79
2023/07/07 09:04:06;;;;;;;23.00;21.60;;;;;;;;;;5092731;28;20461;-80
2023/07/07 09:06:39;;;;;;;22.37;21.07;;;;;;;;;;5091427;28;20431;-78
2023/07/07 09:09:12;;;;;;;22.80;21.30;;;;;;;;;;5091527;28;20463;-78
2023/07/07 09:11:47;;;;;;;23.70;22.20;;;;;;;;;;5091980;28;20477;-78
2023/07/07 09:14:14;;;;;;;24.47;22.97;;;;;;;;;;5092175;28;20435;-78
2023/07/07 09:16:42;;;;;;;23.23;21.93;;;;;;;;;;5092753;28;20439;-78
2023/07/07 09:19:12;;;;;;;22.90;21.60;;;;;;;;;;5090445;28;20450;-78
2023/07/07 09:21:41;;;;;;;24.00;22.50;;;;;;;;;;5091810;28;20485;-79
2023/07/07 09:24:12;;;;;;;23.13;21.73;;;;;;;;;;5092266;28;20408;-79
2023/07/07 09:26:41;;;;;;;23.33;21.83;;;;;;;;;;5091200;28;20404;-78
2023/07/07 09:29:16;;;;;;;23.87;22.47;;;;;;;;;;5091438;28;20534;-81
2023/07/07 09:31:43;;;;;;;23.37;21.87;;;;;;;;;;5091787;28;20472;-81
2023/07/07 09:34:11;;;;;;;22.83;21.23;;;;;;;;;;5093283;28;20451;-79
2023/07/07 09:36:42;;;;;;;23.80;22.10;;;;;;;;;;5095211;28;20462;-79
2023/07/07 09:39:20;;;;;;;22.73;21.43;;;;;;;;;;5101916;28;20459;-80
2023/07/07 09:41:52;;;;;;;23.23;21.70;;;;;;;;;;5094898;28;20447;-83
2023/07/07 09:44:28;;;;;;;21.77;20.37;;;;;;;;;;5090401;28;20497;-76
2023/07/07 09:46:59;;;;;;;23.03;21.53;;;;;;;;;;5090638;28;20450;-79
2023/07/07 09:49:28;;;;;;;23.37;21.70;;;;;;;;;;5090941;28;20522;-75
2023/07/07 09:51:59;;;;;;;22.90;21.50;;;;;;;;;;5092184;28;20807;-80
2023/07/07 09:54:27;;;;;;;22.43;21.13;;;;;;;;;;5090404;28;20520;-87
2023/07/07 09:56:57;;;;;;;23.53;22.03;;;;;;;;;;5090677;28;20452;-75
2023/07/07 09:59:28;;;;;;;24.13;22.07;;;;;;;;;;5091716;28;20428;-80
2023/07/07 10:01:56;;;;;;;24.07;22.53;;;;;;;;;;5096445;28;20469;-80
2023/07/07 10:04:24;;;;;;;23.07;21.67;;;;;;;;;;5099415;28;20423;-80
2023/07/07 10:06:54;;;;;;;23.67;22.07;;;;;;;;;;5097772;28;20518;-80
2023/07/07 10:09:21;;;;;;;22.80;21.40;;;;;;;;;;5098984;28;20490;-80
2023/07/07 10:11:48;;;;;;;22.83;21.43;;;;;;;;;;5099165;28;20522;-80
2023/07/07 10:14:16;;;;;;;23.00;21.60;;;;;;;;;;5099539;28;20423;-80
2023/07/07 10:16:51;;;;;;;23.20;21.80;;;;;;;;;;5098222;28;20514;-79
2023/07/07 10:19:19;;;;;;;24.10;22.60;;;;;;;;;;5099043;28;20399;-80
2023/07/07 10:21:46;;;;;;;23.67;22.20;;;;;;;;;;5098284;28;20480;-80
2023/07/07 10:24:14;;;;;;;23.17;21.63;;;;;;;;;;5098209;28;20505;-80
2023/07/07 10:26:44;;;;;;;23.43;21.83;;;;;;;;;;5097701;28;20444;-80
2023/07/07 10:29:13;;;;;;;23.60;22.10;;;;;;;;;;5097517;28;20447;-80
2023/07/07 10:31:42;;;;;;;23.67;22.17;;;;;;;;;;5097922;28;20484;-80
2023/07/07 10:34:24;;;;;;;24.10;22.50;;;;;;;;;;5098071;28;20455;-80
2023/07/07 10:36:53;;;;;;;23.43;22.03;;;;;;;;;;5097161;28;20493;-80
2023/07/07 10:39:20;;;;;;;25.67;23.70;;;;;;;;;;5097214;28;20420;-80
2023/07/07 10:41:49;;;;;;;23.60;22.10;;;;;;;;;;5096823;28;20451;-80
2023/07/07 10:44:16;;;;;;;23.10;21.67;;;;;;;;;;5097202;28;20884;-80
2023/07/07 10:46:43;;;;;;;23.33;21.73;;;;;;;;;;5097091;28;20481;-81
2023/07/07 10:49:12;;;;;;;23.10;21.50;;;;;;;;;;5097430;28;20456;-80
2023/07/07 10:51:45;;;;;;;23.17;21.77;;;;;;;;;;5096883;28;20963;-79
2023/07/07 10:54:16;;;;;;;23.53;22.03;;;;;;;;;;5097193;28;20433;-80
2023/07/07 10:56:45;;;;;;;23.53;21.93;;;;;;;;;;5096878;28;20453;-80
2023/07/07 10:59:23;;;;;;;22.70;21.30;;;;;;;;;;5097469;28;20445;-79
2023/07/07 11:01:56;;;;;;;23.47;22.07;;;;;;;;;;5097649;28;20980;-80
2023/07/07 11:04:35;;;;;;;23.03;21.73;;;;;;;;;;5097045;28;20419;-79
2023/07/07 11:07:07;;;;;;;23.80;22.37;;;;;;;;;;5096149;28;20478;-81
2023/07/07 11:09:42;;;;;;;23.00;21.50;;;;;;;;;;5096380;28;20463;-79
2023/07/07 11:12:18;;;;;;;22.97;21.60;;;;;;;;;;5096629;28;20480;-81
2023/07/07 11:14:51;;;;;;;23.23;21.90;;;;;;;;;;5097040;28;20407;-78
2023/07/07 11:17:26;;;;;;;23.23;21.80;;;;;;;;;;5096402;28;20439;-80
2023/07/07 11:20:01;;;;;;;22.47;20.97;;;;;;;;;;5096847;28;20391;-80
2023/07/07 11:22:40;;;;;;;22.80;21.40;;;;;;;;;;5097017;28;20428;-80
2023/07/07 11:25:15;;;;;;;22.77;21.40;;;;;;;;;;5098001;28;20421;-80
2023/07/07 11:27:58;;;;;;;22.93;21.23;;;;;;;;;;5095840;28;20421;-80
2023/07/07 11:30:29;;;;;;;23.00;21.30;;;;;;;;;;5096977;28;20459;-80
2023/07/07 11:33:02;;;;;;;23.23;21.63;;;;;;;;;;5096641;28;20419;-80
2023/07/07 11:35:38;;;;;;;22.97;21.57;;;;;;;;;;5096184;28;20404;-80
2023/07/07 11:38:22;;;;;;;22.20;20.70;;;;;;;;;;5096741;28;20433;-80
2023/07/07 11:40:56;;;;;;;22.67;21.27;;;;;;;;;;5096063;28;20447;-82
2023/07/07 11:43:33;;;;;;;22.37;20.90;;;;;;;;;;5094991;28;20478;-81
2023/07/07 11:46:04;;;;;;;23.13;21.27;;;;;;;;;;5094900;28;20819;-81
2023/07/07 11:48:38;;;;;;;22.37;20.97;;;;;;;;;;5095527;28;20464;-82
2023/07/07 11:51:13;;;;;;;22.03;20.63;;;;;;;;;;5095410;28;20476;-79
2023/07/07 11:53:47;;;;;;;22.60;21.10;;;;;;;;;;5095639;28;20433;-79
2023/07/07 11:56:19;;;;;;;22.40;20.93;;;;;;;;;;5094760;28;20852;-79
2023/07/07 11:58:51;;;;;;;22.53;21.13;;;;;;;;;;5095358;28;20487;-80
2023/07/07 12:01:20;;;;;;;22.27;20.90;;;;;;;;;;5095215;28;20427;-79
2023/07/07 12:03:51;;;;;;;22.83;21.33;;;;;;;;;;5096888;28;20408;-80
2023/07/07 12:06:21;;;;;;;23.83;22.33;;;;;;;;;;5095293;28;20469;-80
2023/07/07 12:08:56;;;;;;;23.30;21.80;;;;;;;;;;5095990;28;20481;-79
2023/07/07 12:11:24;;;;;;;23.90;22.00;;;;;;;;;;5096326;28;20500;-80
2023/07/07 12:13:56;;;;;;;22.90;21.40;;;;;;;;;;5095414;28;20892;-81
2023/07/07 12:16:23;;;;;;;22.73;21.23;;;;;;;;;;5095950;28;20883;-81
2023/07/07 12:18:53;;;;;;;22.87;21.40;;;;;;;;;;5096054;28;20461;-80
2023/07/07 12:21:23;;;;;;;23.80;22.30;;;;;;;;;;5094922;28;20462;-79
2023/07/07 12:23:54;;;;;;;22.50;21.10;;;;;;;;;;5095234;28;20573;-80
2023/07/07 12:26:25;;;;;;;23.27;21.77;;;;;;;;;;5094084;28;20396;-80
2023/07/07 12:28:55;;;;;;;23.90;22.30;;;;;;;;;;5094438;28;20637;-78
2023/07/07 12:31:23;;;;;;;23.87;22.17;;;;;;;;;;5094702;28;20480;-81
2023/07/07 12:33:51;;;;;;;23.57;22.10;;;;;;;;;;5094769;28;20477;-80
2023/07/07 12:36:18;;;;;;;23.80;22.30;;;;;;;;;;5095769;28;20427;-79
2023/07/07 12:38:49;;;;;;;23.00;21.50;;;;;;;;;;5095731;28;20446;-80
2023/07/07 12:41:21;;;;;;;23.27;21.77;;;;;;;;;;5095282;28;20469;-81
2023/07/07 12:43:52;;;;;;;23.07;21.57;;;;;;;;;;5094491;28;20902;-80
2023/07/07 12:46:20;;;;;;;24.27;22.40;;;;;;;;;;5093519;28;20423;-79
2023/07/07 12:48:47;;;;;;;23.73;22.20;;;;;;;;;;5094591;28;20498;-80
2023/07/07 12:51:14;;;;;;;22.83;21.43;;;;;;;;;;5094229;28;20489;-79
2023/07/07 12:53:43;;;;;;;23.00;21.60;;;;;;;;;;5094004;28;20468;-80
2023/07/07 12:56:14;;;;;;;23.17;21.63;;;;;;;;;;5094077;28;20423;-79
2023/07/07 12:58:43;;;;;;;24.40;22.80;;;;;;;;;;5094314;28;20441;-80
2023/07/07 13:01:12;;;;;;;23.27;21.77;;;;;;;;;;5094120;28;20465;-80
2023/07/07 13:03:45;;;;;;;23.73;22.23;;;;;;;;;;5094356;28;20896;-84
2023/07/07 13:06:26;;;;;;;23.40;21.90;;;;;;;;;;5092758;28;20449;-81
2023/07/07 13:09:04;;;;;;;23.17;21.67;;;;;;;;;;5095095;28;20488;-78
2023/07/07 13:11:34;;;;;;;23.37;21.87;;;;;;;;;;5094111;28;20462;-78
2023/07/07 13:14:03;;;;;;;22.73;21.30;;;;;;;;;;5095137;28;20523;-79
2023/07/07 13:16:30;;;;;;;22.93;21.53;;;;;;;;;;5093586;28;20448;-79
2023/07/07 13:18:57;;;;;;;23.40;21.70;;;;;;;;;;5094593;28;20480;-79
2023/07/07 13:21:27;;;;;;;23.63;21.93;;;;;;;;;;5093685;28;20461;-78
2023/07/07 13:23:54;;;;;;;23.67;22.17;;;;;;;;;;5094631;28;20423;-78
2023/07/07 13:26:25;;;;;;;23.80;22.20;;;;;;;;;;5092914;28;20468;-80
2023/07/07 13:28:52;;;;;;;24.30;22.60;;;;;;;;;;5094712;28;20990;-80
2023/07/07 13:31:20;;;;;;;24.93;23.00;;;;;;;;;;5094098;28;20483;-79
2023/07/07 13:33:47;;;;;;;24.60;23.10;;;;;;;;;;5094785;28;20445;-79
2023/07/07 13:36:14;;;;;;;23.87;22.40;;;;;;;;;;5094496;28;20451;-78
2023/07/07 13:38:42;;;;;;;24.20;22.40;;;;;;;;;;5093725;28;20453;-78
2023/07/07 13:41:10;;;;;;;24.27;22.67;;;;;;;;;;5093815;28;20473;-78
2023/07/07 13:43:39;;;;;;;22.73;21.30;;;;;;;;;;5094325;28;20916;-80
2023/07/07 13:46:13;;;;;;;23.90;22.40;;;;;;;;;;5093314;28;20479;-81
2023/07/07 13:48:42;;;;;;;23.43;21.83;;;;;;;;;;5094428;28;20449;-79
2023/07/07 13:51:13;;;;;;;23.77;21.83;;;;;;;;;;5093658;28;20485;-81
2023/07/07 13:53:40;;;;;;;24.20;22.47;;;;;;;;;;5096603;28;20449;-80
2023/07/07 13:56:08;;;;;;;23.33;21.73;;;;;;;;;;5093972;28;20441;-80
2023/07/07 13:58:40;;;;;;;23.20;21.80;;;;;;;;;;5093624;28;20463;-81
2023/07/07 14:01:15;;;;;;;22.97;21.47;;;;;;;;;;5093697;28;20514;-78
2023/07/07 14:03:46;;;;;;;23.53;22.03;;;;;;;;;;5093404;28;20891;-78
2023/07/07 14:06:15;;;;;;;23.43;21.93;;;;;;;;;;5093185;28;20468;-78
2023/07/07 14:08:42;;;;;;;22.90;21.50;;;;;;;;;;5093743;28;20453;-78
2023/07/07 14:11:16;;;;;;;23.70;22.20;;;;;;;;;;5094992;28;21270;-79
2023/07/07 14:13:44;;;;;;;23.63;22.13;;;;;;;;;;5104874;28;20409;-80
2023/07/07 14:16:14;;;;;;;22.30;20.90;;;;;;;;;;5111233;28;20521;-79
2023/07/07 14:18:43;;;;;;;23.63;22.13;;;;;;;;;;5112929;28;20437;-81
2023/07/07 14:21:14;;;;;;;24.40;22.90;;;;;;;;;;5112858;28;20480;-81
2023/07/07 14:23:42;;;;;;;23.47;21.97;;;;;;;;;;5114411;28;20399;-81
2023/07/07 14:26:14;;;;;;;23.37;21.97;;;;;;;;;;5112310;28;20437;-79